createdAt,value
2022-09-20T00:01:09.389Z,2.00
2022-09-20T00:03:37.271Z,3.80
2022-09-20T00:06:06.514Z,2.00
2022-09-20T00:08:33.176Z,2.58
2022-09-20T00:11:14.497Z,1.80
2022-09-20T00:13:42.648Z,2.35
2022-09-20T00:16:12.794Z,2.28
2022-09-20T00:18:39.685Z,1.88
2022-09-20T00:21:06.676Z,2.38
2022-09-20T00:23:33.715Z,1.92
2022-09-20T00:26:02.193Z,2.45
2022-09-20T00:28:29.618Z,2.33
2022-09-20T00:30:56.864Z,2.10
2022-09-20T00:33:45.092Z,2.15
2022-09-20T00:36:11.668Z,2.58
2022-09-20T00:38:38.061Z,2.50
2022-09-20T00:41:04.653Z,2.58
2022-09-20T00:43:36.991Z,2.72
2022-09-20T00:46:04.283Z,2.63
2022-09-20T00:48:33.157Z,2.17
2022-09-20T00:51:06.039Z,2.33
2022-09-20T00:53:36.864Z,2.80
2022-09-20T00:56:29.340Z,2.60
2022-09-20T00:59:14.468Z,2.60
2022-09-20T01:01:41.372Z,3.30
2022-09-20T01:04:08.707Z,2.50
2022-09-20T01:06:35.613Z,2.42
2022-09-20T01:09:05.366Z,2.50
2022-09-20T01:11:31.870Z,1.85
2022-09-20T01:13:58.276Z,3.50
2022-09-20T01:16:26.679Z,2.45
2022-09-20T01:18:55.201Z,2.72
2022-09-20T01:21:21.946Z,2.97
2022-09-20T01:24:19.180Z,2.55
2022-09-20T01:27:06.543Z,2.10
2022-09-20T01:30:06.860Z,3.00
2022-09-20T01:32:44.149Z,2.70
2022-09-20T01:35:11.560Z,3.00
2022-09-20T01:38:05.092Z,2.92
2022-09-20T01:40:46.422Z,2.90
2022-09-20T01:43:33.049Z,2.65
2022-09-20T01:46:10.754Z,2.67
2022-09-20T01:48:39.208Z,3.00
2022-09-20T01:51:45.884Z,2.95
2022-09-20T01:57:09.018Z,3.03
2022-09-20T02:00:14.301Z,3.22
2022-09-20T02:02:51.110Z,3.10
2022-09-20T02:05:36.420Z,2.70
2022-09-20T02:08:08.362Z,3.08
2022-09-20T02:10:41.713Z,3.10
2022-09-20T02:13:30.464Z,2.92
2022-09-20T02:15:59.828Z,3.53
2022-09-20T02:18:46.102Z,4.80
2022-09-20T02:21:29.389Z,2.95
2022-09-20T02:24:16.510Z,2.85
2022-09-20T02:27:04.773Z,3.00
2022-09-20T02:29:33.912Z,3.35
2022-09-20T02:32:12.557Z,3.20
2022-09-20T02:35:14.625Z,2.60
2022-09-20T02:38:18.853Z,2.38
2022-09-20T02:41:18.897Z,3.22
2022-09-20T02:44:00.213Z,3.25
2022-09-20T02:46:33.855Z,2.80
2022-09-20T02:49:43.754Z,3.25
2022-09-20T02:52:31.166Z,3.20
2022-09-20T02:55:07.550Z,3.03
2022-09-20T02:57:52.992Z,2.70
2022-09-20T03:00:23.896Z,3.47
2022-09-20T03:03:07.837Z,3.03
2022-09-20T03:05:42.270Z,3.53
2022-09-20T03:08:28.418Z,3.57
2022-09-20T03:11:10.300Z,3.35
2022-09-20T03:14:26.168Z,3.17
2022-09-20T03:17:05.779Z,2.72
2022-09-20T03:19:48.244Z,2.72
2022-09-20T03:22:31.118Z,2.78
2022-09-20T03:25:27.896Z,2.90
2022-09-20T03:28:03.620Z,3.50
2022-09-20T03:31:18.910Z,3.30
2022-09-20T03:34:05.794Z,2.50
2022-09-20T03:36:44.262Z,3.10
2022-09-20T03:39:22.568Z,3.08
2022-09-20T03:42:01.250Z,3.10
2022-09-20T03:44:48.050Z,3.03
2022-09-20T03:47:26.420Z,3.75
2022-09-20T03:50:07.268Z,3.13
2022-09-20T03:52:39.733Z,3.30
2022-09-20T03:55:13.918Z,3.00
2022-09-20T03:58:08.829Z,2.88
2022-09-20T04:01:11.020Z,3.23
2022-09-20T04:03:53.550Z,2.65
2022-09-20T04:06:53.694Z,3.40
2022-09-20T04:09:50.942Z,1.95
2022-09-20T04:12:28.080Z,3.00
2022-09-20T04:14:54.759Z,2.83
2022-09-20T04:17:33.104Z,3.08
2022-09-20T04:20:32.113Z,2.40
2022-09-20T04:23:08.207Z,2.60
2022-09-20T04:25:43.987Z,3.17
2022-09-20T04:28:27.225Z,2.75
2022-09-20T04:30:59.850Z,3.30
2022-09-20T04:33:31.105Z,2.72
2022-09-20T04:36:29.647Z,2.50
2022-09-20T04:39:20.082Z,2.58
2022-09-20T04:42:18.522Z,2.38
2022-09-20T04:45:30.443Z,2.70
2022-09-20T04:48:47.972Z,2.63
2022-09-20T04:52:03.898Z,2.80
2022-09-20T04:54:54.666Z,2.28
2022-09-20T04:57:45.744Z,2.85
2022-09-20T05:00:18.418Z,2.50
2022-09-20T05:03:03.996Z,2.65
2022-09-20T05:05:53.599Z,2.38
2022-09-20T05:09:03.439Z,2.25
2022-09-20T05:11:54.342Z,2.47
2022-09-20T05:14:40.722Z,2.10
2022-09-20T05:17:37.170Z,2.80
2022-09-20T05:20:25.340Z,2.25
2022-09-20T05:23:09.585Z,2.35
2022-09-20T05:26:07.966Z,2.38
2022-09-20T05:29:09.986Z,2.70
2022-09-20T05:31:49.602Z,2.42
2022-09-20T05:34:42.391Z,2.58
2022-09-20T05:37:37.176Z,3.28
2022-09-20T05:40:29.138Z,2.58
2022-09-20T05:43:11.118Z,2.90
2022-09-20T05:46:03.771Z,2.47
2022-09-20T05:48:54.909Z,3.30
2022-09-20T05:51:37.775Z,3.15
2022-09-20T05:54:18.485Z,2.47
2022-09-20T05:56:55.143Z,2.85
2022-09-20T05:59:40.057Z,2.17
2022-09-20T06:02:38.490Z,2.33
2022-09-20T06:05:33.302Z,2.50
2022-09-20T06:08:36.286Z,2.33
2022-09-20T06:11:44.808Z,2.35
2022-09-20T06:15:02.497Z,2.40
2022-09-20T06:20:27.163Z,2.42
2022-09-20T06:22:56.859Z,2.50
2022-09-20T06:25:29.769Z,2.67
2022-09-20T06:28:01.413Z,1.98
2022-09-20T06:30:33.811Z,2.08
2022-09-20T06:33:13.629Z,2.03
2022-09-20T06:35:49.394Z,2.03
2022-09-20T06:38:49.797Z,2.08
2022-09-20T06:41:28.558Z,1.90
2022-09-20T06:43:59.959Z,2.28
2022-09-20T06:46:28.748Z,2.05
2022-09-20T06:48:56.218Z,2.13
2022-09-20T06:51:25.746Z,1.88
2022-09-20T06:53:54.950Z,2.25
2022-09-20T06:56:36.616Z,2.35
2022-09-20T06:59:05.016Z,2.13
2022-09-20T07:01:31.581Z,2.38
2022-09-20T07:03:58.895Z,2.10
2022-09-20T07:06:26.646Z,2.00
2022-09-20T07:08:53.152Z,2.35
2022-09-20T07:11:20.138Z,2.10
2022-09-20T07:13:51.463Z,2.03
2022-09-20T07:16:18.094Z,2.05
2022-09-20T07:18:44.713Z,1.73
2022-09-20T07:21:16.614Z,1.65
2022-09-20T07:23:45.662Z,1.65
2022-09-20T07:26:21.304Z,1.88
2022-09-20T07:28:49.316Z,1.83
2022-09-20T07:31:19.033Z,1.60
2022-09-20T07:33:45.985Z,1.60
2022-09-20T07:36:13.038Z,1.42
2022-09-20T07:38:40.716Z,1.88
2022-09-20T07:41:07.968Z,1.80
2022-09-20T07:43:35.294Z,1.30
2022-09-20T07:46:02.032Z,1.35
2022-09-20T07:48:33.872Z,1.35
2022-09-20T07:51:09.378Z,1.35
2022-09-20T07:53:36.819Z,1.08
2022-09-20T07:56:07.723Z,1.67
2022-09-20T07:58:35.641Z,4.40
2022-09-20T08:01:05.714Z,2.47
2022-09-20T08:03:34.503Z,1.83
2022-09-20T08:06:04.005Z,2.90
2022-09-20T08:08:43.324Z,2.50
2022-09-20T08:11:16.103Z,1.40
2022-09-20T08:14:05.794Z,1.05
2022-09-20T08:16:38.190Z,1.15
2022-09-20T08:19:04.906Z,3.50
2022-09-20T08:21:33.611Z,1.15
2022-09-20T08:24:00.649Z,1.40
2022-09-20T08:26:28.828Z,1.90
2022-09-20T08:28:57.656Z,1.90
2022-09-20T08:31:34.121Z,1.38
2022-09-20T08:34:03.858Z,1.35
2022-09-20T08:36:36.305Z,1.15
2022-09-20T08:42:12.972Z,1.10
2022-09-20T08:45:02.485Z,1.15
2022-09-20T08:47:36.471Z,1.00
2022-09-20T08:50:09.531Z,1.60
2022-09-20T08:52:39.960Z,1.17
2022-09-20T08:55:36.405Z,1.20
2022-09-20T08:58:08.243Z,1.73
2022-09-20T09:00:37.352Z,1.30
2022-09-20T09:03:12.698Z,3.15
2022-09-20T09:05:44.812Z,1.13
2022-09-20T09:08:16.415Z,1.50
2022-09-20T09:10:46.559Z,1.35
2022-09-20T09:13:22.592Z,1.45
2022-09-20T09:15:56.805Z,1.63
2022-09-20T09:18:32.063Z,1.40
2022-09-20T09:20:59.182Z,1.90
2022-09-20T09:23:27.576Z,1.70
2022-09-20T09:25:55.167Z,1.48
2022-09-20T09:28:29.236Z,1.60
2022-09-20T09:31:27.980Z,1.23
2022-09-20T09:33:55.836Z,1.17
2022-09-20T09:36:25.650Z,1.02
2022-09-20T09:39:38.232Z,1.52
2022-09-20T09:42:23.695Z,1.00
2022-09-20T09:44:50.351Z,1.38
2022-09-20T09:47:28.038Z,1.15
2022-09-20T09:50:01.880Z,1.45
2022-09-20T09:52:33.255Z,1.42
2022-09-20T09:55:05.460Z,1.38
2022-09-20T09:57:58.326Z,1.25
2022-09-20T10:00:26.940Z,1.00
2022-09-20T10:03:19.687Z,1.20
2022-09-20T10:06:21.356Z,1.48
2022-09-20T10:09:30.526Z,1.00
2022-09-20T10:12:12.272Z,1.85
2022-09-20T10:14:38.794Z,1.55
2022-09-20T10:17:17.158Z,1.98
2022-09-20T10:19:56.153Z,1.15
2022-09-20T10:23:21.399Z,1.40
2022-09-20T10:25:54.943Z,1.08
2022-09-20T10:28:37.808Z,1.50
2022-09-20T10:31:31.667Z,1.50
2022-09-20T10:34:21.660Z,1.08
2022-09-20T10:36:53.764Z,1.40
2022-09-20T10:39:33.835Z,2.42
2022-09-20T10:42:42.038Z,1.90
2022-09-20T10:45:43.990Z,1.60
2022-09-20T10:48:18.372Z,1.90
2022-09-20T10:51:00.154Z,1.83
2022-09-20T10:53:41.887Z,1.10
2022-09-20T10:56:24.006Z,1.05
2022-09-20T10:59:04.247Z,0.90
2022-09-20T11:02:04.016Z,1.70
2022-09-20T11:05:00.688Z,1.17
2022-09-20T11:07:27.110Z,1.10
2022-09-20T11:10:14.835Z,0.90
2022-09-20T11:12:51.193Z,1.08
2022-09-20T11:15:34.081Z,1.20
2022-09-20T11:18:24.956Z,0.85
2022-09-20T11:21:08.319Z,2.78
2022-09-20T11:23:51.610Z,0.93
2022-09-20T11:26:28.634Z,0.98
2022-09-20T11:29:05.394Z,0.90
2022-09-20T11:31:41.758Z,1.20
2022-09-20T11:34:20.944Z,1.10
2022-09-20T11:37:03.191Z,0.75
2022-09-20T11:39:54.993Z,0.90
2022-09-20T11:42:32.588Z,0.80
2022-09-20T11:44:59.240Z,0.95
2022-09-20T11:47:54.435Z,1.60
2022-09-20T11:50:44.783Z,1.17
2022-09-20T11:53:41.296Z,0.95
2022-09-20T11:56:18.761Z,0.70
2022-09-20T11:58:51.338Z,0.93
2022-09-20T12:01:30.127Z,1.00
2022-09-20T12:04:27.689Z,0.70
2022-09-20T12:07:08.986Z,0.82
2022-09-20T12:09:44.603Z,0.85
2022-09-20T12:12:20.062Z,0.60
2022-09-20T12:14:55.017Z,0.70
2022-09-20T12:20:39.526Z,1.20
2022-09-20T12:23:43.229Z,0.82
2022-09-20T12:26:30.306Z,1.48
2022-09-20T12:29:22.057Z,2.67
2022-09-20T12:31:50.741Z,1.17
2022-09-20T12:34:17.150Z,1.60
2022-09-20T12:37:05.202Z,0.80
2022-09-20T12:39:34.148Z,1.70
2022-09-20T12:42:04.225Z,0.90
2022-09-20T12:44:36.756Z,1.20
2022-09-20T12:47:12.422Z,1.08
2022-09-20T12:50:08.162Z,0.70
2022-09-20T12:55:30.054Z,0.73
2022-09-20T12:58:02.487Z,2.70
2022-09-20T13:00:51.485Z,1.55
2022-09-20T13:03:36.988Z,1.40
2022-09-20T13:09:03.591Z,1.05
2022-09-20T13:11:40.545Z,0.90
2022-09-20T13:14:19.986Z,0.75
2022-09-20T13:17:19.149Z,1.10
2022-09-20T13:19:49.837Z,1.25
2022-09-20T13:22:27.000Z,1.10
2022-09-20T13:24:58.281Z,0.57
2022-09-20T13:27:30.279Z,1.20
2022-09-20T13:30:17.486Z,1.30
2022-09-20T13:32:44.578Z,1.80
2022-09-20T13:35:15.492Z,1.00
2022-09-20T13:37:44.965Z,0.90
2022-09-20T13:40:31.871Z,0.70
2022-09-20T13:43:22.134Z,0.70
2022-09-20T13:45:53.880Z,0.90
2022-09-20T13:48:24.692Z,0.73
2022-09-20T13:50:53.617Z,1.15
2022-09-20T13:53:39.771Z,0.82
2022-09-20T13:56:19.518Z,0.57
2022-09-20T13:58:46.172Z,0.70
2022-09-20T14:01:38.081Z,0.70
2022-09-20T14:04:08.556Z,0.70
2022-09-20T14:06:35.736Z,1.20
2022-09-20T14:09:10.760Z,0.90
2022-09-20T14:11:39.382Z,0.70
2022-09-20T14:14:07.858Z,0.82
2022-09-20T14:16:39.464Z,0.80
2022-09-20T14:19:08.078Z,0.45
2022-09-20T14:21:37.449Z,0.90
2022-09-20T14:24:25.711Z,0.68
2022-09-20T14:27:16.452Z,0.93
2022-09-20T14:29:46.302Z,0.68
2022-09-20T14:32:18.828Z,0.85
2022-09-20T14:34:53.636Z,0.95
2022-09-20T14:37:30.185Z,0.80
2022-09-20T14:39:59.143Z,0.93
2022-09-20T14:42:33.471Z,1.10
2022-09-20T14:45:00.512Z,0.80
2022-09-20T14:47:29.736Z,0.60
2022-09-20T14:49:57.948Z,0.52
2022-09-20T14:52:27.427Z,1.05
2022-09-20T14:55:19.035Z,1.05
2022-09-20T14:57:46.974Z,0.88
2022-09-20T15:00:19.410Z,0.77
2022-09-20T15:02:46.495Z,1.00
2022-09-20T15:05:25.916Z,0.70
2022-09-20T15:07:54.951Z,0.70
2022-09-20T15:10:22.138Z,0.70
2022-09-20T15:12:48.579Z,0.77
2022-09-20T15:15:18.798Z,1.08
2022-09-20T15:17:46.861Z,0.60
2022-09-20T15:20:24.519Z,0.63
2022-09-20T15:22:51.311Z,0.80
2022-09-20T15:25:21.814Z,0.65
2022-09-20T15:27:52.016Z,0.60
2022-09-20T15:30:22.307Z,0.75
2022-09-20T15:32:48.785Z,0.70
2022-09-20T15:35:15.531Z,0.73
2022-09-20T15:37:42.049Z,0.73
2022-09-20T15:40:09.377Z,0.65
2022-09-20T15:42:37.898Z,1.27
2022-09-20T15:45:13.538Z,0.68
2022-09-20T15:47:40.732Z,1.00
2022-09-20T15:50:08.771Z,0.70
2022-09-20T15:52:36.657Z,1.35
2022-09-20T15:55:04.052Z,0.93
2022-09-20T15:57:31.872Z,0.70
2022-09-20T15:59:59.348Z,0.80
2022-09-20T16:02:26.352Z,0.95
2022-09-20T16:04:55.680Z,0.90
2022-09-20T16:07:25.768Z,0.70
2022-09-20T16:09:54.303Z,1.10
2022-09-20T16:12:22.220Z,0.75
2022-09-20T16:14:49.138Z,0.90
2022-09-20T16:17:16.919Z,0.85
2022-09-20T16:19:45.940Z,1.10
2022-09-20T16:22:12.481Z,0.68
2022-09-20T16:24:38.997Z,0.77
2022-09-20T16:27:07.452Z,0.82
2022-09-20T16:29:34.433Z,0.60
2022-09-20T16:32:03.366Z,0.63
2022-09-20T16:34:32.652Z,1.10
2022-09-20T16:37:11.696Z,0.77
2022-09-20T16:39:38.358Z,0.90
2022-09-20T16:42:06.388Z,0.60
2022-09-20T16:44:37.318Z,0.65
2022-09-20T16:47:08.886Z,0.70
2022-09-20T16:49:36.697Z,0.73
2022-09-20T16:52:08.099Z,1.02
2022-09-20T16:54:35.529Z,1.70
2022-09-20T16:57:02.386Z,1.13
2022-09-20T16:59:28.978Z,0.85
2022-09-20T17:01:55.637Z,1.60
2022-09-20T17:04:22.252Z,1.73
2022-09-20T17:06:50.096Z,1.52
2022-09-20T17:09:16.934Z,1.27
2022-09-20T17:11:45.814Z,1.75
2022-09-20T17:14:13.233Z,1.48
2022-09-20T17:16:41.258Z,1.40
2022-09-20T17:19:13.143Z,2.40
2022-09-20T17:21:43.618Z,2.33
2022-09-20T17:24:10.333Z,3.53
2022-09-20T17:26:41.916Z,2.83
2022-09-20T17:29:10.198Z,2.53
2022-09-20T17:31:39.106Z,1.52
2022-09-20T17:34:08.389Z,1.20
2022-09-20T17:36:41.391Z,1.75
2022-09-20T17:39:12.757Z,1.90
2022-09-20T17:41:41.439Z,1.92
2022-09-20T17:44:09.886Z,2.30
2022-09-20T17:46:38.687Z,2.30
2022-09-20T17:49:11.062Z,2.55
2022-09-20T17:51:40.137Z,1.88
2022-09-20T17:54:08.406Z,1.60
2022-09-20T17:56:35.599Z,2.83
2022-09-20T17:59:03.989Z,2.20
2022-09-20T18:01:32.122Z,1.98
2022-09-20T18:04:00.612Z,2.15
2022-09-20T18:06:35.457Z,2.88
2022-09-20T18:09:06.076Z,1.92
2022-09-20T18:11:45.261Z,1.90
2022-09-20T18:14:13.280Z,2.00
2022-09-20T18:16:40.402Z,2.05
2022-09-20T18:19:08.411Z,2.35
2022-09-20T18:21:36.591Z,2.30
2022-09-20T18:24:07.330Z,2.03
2022-09-20T18:26:34.964Z,2.13
2022-09-20T18:29:02.820Z,2.15
2022-09-20T18:31:35.981Z,2.33
2022-09-20T18:34:30.925Z,2.97
2022-09-20T18:36:59.717Z,2.28
2022-09-20T18:39:32.293Z,18.15
2022-09-20T18:41:59.852Z,12.80
2022-09-20T18:44:27.606Z,10.13
2022-09-20T18:46:54.874Z,4.18
2022-09-20T18:49:22.000Z,2.90
2022-09-20T18:51:49.400Z,1.92
2022-09-20T18:54:16.627Z,2.28
2022-09-20T18:56:50.722Z,2.22
2022-09-20T18:59:25.239Z,2.00
2022-09-20T19:01:55.036Z,4.38
2022-09-20T19:04:45.928Z,2.28
2022-09-20T19:07:27.886Z,1.80
2022-09-20T19:10:06.267Z,1.80
2022-09-20T19:12:41.426Z,1.90
2022-09-20T19:15:07.848Z,1.60
2022-09-20T19:17:43.899Z,2.50
2022-09-20T19:20:46.202Z,1.75
2022-09-20T19:23:27.964Z,1.88
2022-09-20T19:26:10.265Z,1.73
2022-09-20T19:28:36.986Z,1.85
2022-09-20T19:31:03.843Z,2.20
2022-09-20T19:33:30.514Z,2.53
2022-09-20T19:35:59.018Z,2.70
2022-09-20T19:38:54.738Z,2.58
2022-09-20T19:41:59.004Z,2.13
2022-09-20T19:44:39.186Z,2.13
2022-09-20T19:47:47.140Z,2.10
2022-09-20T19:50:39.199Z,2.28
2022-09-20T19:53:05.968Z,2.67
2022-09-20T19:55:34.947Z,3.28
2022-09-20T19:58:02.268Z,2.45
2022-09-20T20:00:29.924Z,2.30
2022-09-20T20:02:56.695Z,2.65
2022-09-20T20:05:27.599Z,2.53
2022-09-20T20:08:32.941Z,2.53
2022-09-20T20:11:16.174Z,1.88
2022-09-20T20:14:02.952Z,1.92
2022-09-20T20:16:36.406Z,2.75
2022-09-20T20:19:21.619Z,2.47
2022-09-20T20:21:57.952Z,2.03
2022-09-20T20:24:27.171Z,2.00
2022-09-20T20:26:53.616Z,2.85
2022-09-20T20:29:20.133Z,2.40
2022-09-20T20:31:46.724Z,2.38
2022-09-20T20:34:16.213Z,3.03
2022-09-20T20:36:45.407Z,2.42
2022-09-20T20:39:12.116Z,1.70
2022-09-20T20:41:39.334Z,2.45
2022-09-20T20:44:06.184Z,2.80
2022-09-20T20:46:34.713Z,2.72
2022-09-20T20:49:04.933Z,2.47
2022-09-20T20:51:32.950Z,2.53
2022-09-20T20:53:59.695Z,2.33
2022-09-20T20:56:28.722Z,2.88
2022-09-20T20:59:00.341Z,3.47
2022-09-20T21:01:47.101Z,2.72
2022-09-20T21:04:15.528Z,2.90
2022-09-20T21:06:42.227Z,3.20
2022-09-20T21:09:10.216Z,3.00
2022-09-20T21:11:39.190Z,3.30
2022-09-20T21:14:07.153Z,3.13
2022-09-20T21:16:36.448Z,2.83
2022-09-20T21:19:05.531Z,3.22
2022-09-20T21:21:35.169Z,2.80
2022-09-20T21:24:04.060Z,3.20
2022-09-20T21:26:32.010Z,3.58
2022-09-20T21:29:01.286Z,3.33
2022-09-20T21:31:30.387Z,3.55
2022-09-20T21:33:57.212Z,4.20
2022-09-20T21:36:26.666Z,3.90
2022-09-20T21:38:53.721Z,3.10
2022-09-20T21:41:22.650Z,2.65
2022-09-20T21:43:53.114Z,2.15
2022-09-20T21:46:22.065Z,2.47
2022-09-20T21:48:50.336Z,2.83
2022-09-20T21:51:19.140Z,2.63
2022-09-20T21:53:46.816Z,3.03
2022-09-20T21:56:16.080Z,2.45
2022-09-20T21:58:42.774Z,2.40
2022-09-20T22:01:12.049Z,2.70
2022-09-20T22:03:41.137Z,3.10
2022-09-20T22:06:19.199Z,3.35
2022-09-20T22:08:58.098Z,2.67
2022-09-20T22:11:26.892Z,3.55
2022-09-20T22:13:54.921Z,3.28
2022-09-20T22:16:24.380Z,2.50
2022-09-20T22:18:52.120Z,2.72
2022-09-20T22:21:23.890Z,3.15
2022-09-20T22:23:52.642Z,2.67
2022-09-20T22:26:21.765Z,2.60
2022-09-20T22:28:51.663Z,2.13
2022-09-20T22:31:24.478Z,2.70
2022-09-20T22:33:53.314Z,2.53
2022-09-20T22:36:28.345Z,2.28
2022-09-20T22:38:56.154Z,2.53
2022-09-20T22:41:23.398Z,2.05
2022-09-20T22:43:50.285Z,2.78
2022-09-20T22:46:19.722Z,3.13
2022-09-20T22:48:46.926Z,2.88
2022-09-20T22:51:16.614Z,3.15
2022-09-20T22:53:43.821Z,3.55
2022-09-20T22:56:11.751Z,2.83
2022-09-20T22:58:40.886Z,2.97
2022-09-20T23:01:10.736Z,2.70
2022-09-20T23:03:39.380Z,3.00
2022-09-20T23:06:20.862Z,2.58
2022-09-20T23:08:48.467Z,3.08
2022-09-20T23:11:15.612Z,2.95
2022-09-20T23:13:43.059Z,2.42
2022-09-20T23:16:21.131Z,3.03
2022-09-20T23:18:49.245Z,2.53
2022-09-20T23:21:16.831Z,2.70
2022-09-20T23:23:44.561Z,2.47
2022-09-20T23:26:17.061Z,2.95
2022-09-20T23:28:46.636Z,3.08
2022-09-20T23:31:15.929Z,3.03
2022-09-20T23:33:54.097Z,3.38
2022-09-20T23:36:21.647Z,2.90
2022-09-20T23:38:48.560Z,2.78
2022-09-20T23:41:17.661Z,3.20
2022-09-20T23:43:44.516Z,2.53
2022-09-20T23:46:13.836Z,2.63
2022-09-20T23:48:41.824Z,2.78
2022-09-20T23:51:10.847Z,3.03
2022-09-20T23:53:37.807Z,2.80
2022-09-20T23:56:06.094Z,3.35
2022-09-20T23:58:33.684Z,2.92
